sensor_id;sensor_type;location;lat;lon;timestamp;temperature;humidity
4584;DHT22;2304;47.606;12.186;2023-02-15T00:01:56;3.60;63.60
4584;DHT22;2304;47.606;12.186;2023-02-15T00:06:58;3.60;64.00
4584;DHT22;2304;47.606;12.186;2023-02-15T00:12:00;3.60;63.80
4584;DHT22;2304;47.606;12.186;2023-02-15T00:17:03;3.60;63.40
4584;DHT22;2304;47.606;12.186;2023-02-15T00:22:05;3.50;63.40
4584;DHT22;2304;47.606;12.186;2023-02-15T00:27:07;3.50;63.10
4584;DHT22;2304;47.606;12.186;2023-02-15T00:32:11;3.50;63.80
4584;DHT22;2304;47.606;12.186;2023-02-15T00:37:12;3.50;63.50
4584;DHT22;2304;47.606;12.186;2023-02-15T00:42:14;3.40;63.50
4584;DHT22;2304;47.606;12.186;2023-02-15T00:47:17;3.40;64.90
4584;DHT22;2304;47.606;12.186;2023-02-15T00:52:19;3.40;64.70
4584;DHT22;2304;47.606;12.186;2023-02-15T00:57:21;3.30;64.10
4584;DHT22;2304;47.606;12.186;2023-02-15T01:02:24;3.30;64.40
4584;DHT22;2304;47.606;12.186;2023-02-15T01:07:26;3.30;64.80
4584;DHT22;2304;47.606;12.186;2023-02-15T01:12:28;3.20;65.00
4584;DHT22;2304;47.606;12.186;2023-02-15T01:17:31;3.20;64.40
4584;DHT22;2304;47.606;12.186;2023-02-15T01:22:33;3.20;63.70
4584;DHT22;2304;47.606;12.186;2023-02-15T01:27:35;3.10;63.50
4584;DHT22;2304;47.606;12.186;2023-02-15T01:32:38;3.00;63.90
4584;DHT22;2304;47.606;12.186;2023-02-15T01:37:40;3.00;63.10
4584;DHT22;2304;47.606;12.186;2023-02-15T01:42:42;3.00;63.30
4584;DHT22;2304;47.606;12.186;2023-02-15T01:47:48;2.90;63.50
4584;DHT22;2304;47.606;12.186;2023-02-15T01:52:53;2.90;63.60
4584;DHT22;2304;47.606;12.186;2023-02-15T01:57:56;2.90;63.70
4584;DHT22;2304;47.606;12.186;2023-02-15T02:03:00;2.80;63.50
4584;DHT22;2304;47.606;12.186;2023-02-15T02:08:03;2.80;63.10
4584;DHT22;2304;47.606;12.186;2023-02-15T02:13:06;2.80;63.70
4584;DHT22;2304;47.606;12.186;2023-02-15T02:18:21;2.70;63.10
4584;DHT22;2304;47.606;12.186;2023-02-15T02:23:32;2.70;62.80
4584;DHT22;2304;47.606;12.186;2023-02-15T02:29:04;2.70;63.00
4584;DHT22;2304;47.606;12.186;2023-02-15T02:34:14;2.70;62.60
4584;DHT22;2304;47.606;12.186;2023-02-15T02:39:25;2.70;62.80
4584;DHT22;2304;47.606;12.186;2023-02-15T02:44:35;2.70;62.90
4584;DHT22;2304;47.606;12.186;2023-02-15T02:49:45;2.70;64.20
4584;DHT22;2304;47.606;12.186;2023-02-15T02:54:46;2.60;64.20
4584;DHT22;2304;47.606;12.186;2023-02-15T02:59:50;2.60;64.10
4584;DHT22;2304;47.606;12.186;2023-02-15T03:04:57;2.70;64.40
4584;DHT22;2304;47.606;12.186;2023-02-15T03:10:05;2.70;64.00
4584;DHT22;2304;47.606;12.186;2023-02-15T03:15:10;2.70;64.10
4584;DHT22;2304;47.606;12.186;2023-02-15T03:20:20;2.70;63.70
4584;DHT22;2304;47.606;12.186;2023-02-15T03:25:30;2.60;63.50
4584;DHT22;2304;47.606;12.186;2023-02-15T03:30:34;2.60;63.20
4584;DHT22;2304;47.606;12.186;2023-02-15T03:35:43;2.50;63.40
4584;DHT22;2304;47.606;12.186;2023-02-15T03:40:47;2.50;65.00
4584;DHT22;2304;47.606;12.186;2023-02-15T03:46:11;2.50;65.30
4584;DHT22;2304;47.606;12.186;2023-02-15T03:51:18;2.40;64.40
4584;DHT22;2304;47.606;12.186;2023-02-15T03:56:38;2.50;63.50
4584;DHT22;2304;47.606;12.186;2023-02-15T04:01:48;2.40;63.70
4584;DHT22;2304;47.606;12.186;2023-02-15T04:07:04;2.50;63.10
4584;DHT22;2304;47.606;12.186;2023-02-15T04:12:06;2.40;62.90
4584;DHT22;2304;47.606;12.186;2023-02-15T04:17:09;2.40;62.60
4584;DHT22;2304;47.606;12.186;2023-02-15T04:22:12;2.40;62.60
4584;DHT22;2304;47.606;12.186;2023-02-15T04:27:32;2.30;62.50
4584;DHT22;2304;47.606;12.186;2023-02-15T04:32:34;2.30;62.60
4584;DHT22;2304;47.606;12.186;2023-02-15T04:37:37;2.30;63.40
4584;DHT22;2304;47.606;12.186;2023-02-15T04:42:39;2.20;63.20
4584;DHT22;2304;47.606;12.186;2023-02-15T04:47:42;2.20;63.20
4584;DHT22;2304;47.606;12.186;2023-02-15T04:52:45;2.20;63.40
4584;DHT22;2304;47.606;12.186;2023-02-15T04:57:47;2.20;63.00
4584;DHT22;2304;47.606;12.186;2023-02-15T05:02:48;2.20;63.00
4584;DHT22;2304;47.606;12.186;2023-02-15T05:07:51;2.20;62.70
4584;DHT22;2304;47.606;12.186;2023-02-15T05:12:53;2.20;62.50
4584;DHT22;2304;47.606;12.186;2023-02-15T05:17:55;2.20;62.30
4584;DHT22;2304;47.606;12.186;2023-02-15T05:22:58;2.00;62.50
4584;DHT22;2304;47.606;12.186;2023-02-15T05:28:00;2.00;62.90
4584;DHT22;2304;47.606;12.186;2023-02-15T05:33:19;2.00;62.90
4584;DHT22;2304;47.606;12.186;2023-02-15T05:38:23;2.10;62.40
4584;DHT22;2304;47.606;12.186;2023-02-15T05:43:25;2.10;62.30
4584;DHT22;2304;47.606;12.186;2023-02-15T05:48:27;2.10;62.30
4584;DHT22;2304;47.606;12.186;2023-02-15T05:53:32;1.90;62.20
4584;DHT22;2304;47.606;12.186;2023-02-15T05:58:36;1.80;61.90
4584;DHT22;2304;47.606;12.186;2023-02-15T06:03:38;1.70;62.20
4584;DHT22;2304;47.606;12.186;2023-02-15T06:08:41;1.70;62.60
4584;DHT22;2304;47.606;12.186;2023-02-15T06:13:43;1.60;64.60
4584;DHT22;2304;47.606;12.186;2023-02-15T06:18:45;1.60;64.70
4584;DHT22;2304;47.606;12.186;2023-02-15T06:23:48;1.50;64.60
4584;DHT22;2304;47.606;12.186;2023-02-15T06:28:50;1.60;63.80
4584;DHT22;2304;47.606;12.186;2023-02-15T06:33:52;1.60;63.30
4584;DHT22;2304;47.606;12.186;2023-02-15T06:39:02;1.70;63.60
4584;DHT22;2304;47.606;12.186;2023-02-15T06:44:04;1.70;62.90
4584;DHT22;2304;47.606;12.186;2023-02-15T06:49:06;2.00;62.70
4584;DHT22;2304;47.606;12.186;2023-02-15T06:54:09;1.50;65.30
4584;DHT22;2304;47.606;12.186;2023-02-15T06:59:11;1.50;64.90
4584;DHT22;2304;47.606;12.186;2023-02-15T07:04:13;1.60;64.70
4584;DHT22;2304;47.606;12.186;2023-02-15T07:09:16;1.50;65.00
4584;DHT22;2304;47.606;12.186;2023-02-15T07:14:18;1.60;65.10
4584;DHT22;2304;47.606;12.186;2023-02-15T07:19:20;1.60;65.30
4584;DHT22;2304;47.606;12.186;2023-02-15T07:24:23;1.60;64.50
4584;DHT22;2304;47.606;12.186;2023-02-15T07:29:25;1.60;64.40
4584;DHT22;2304;47.606;12.186;2023-02-15T07:34:27;1.60;64.90
4584;DHT22;2304;47.606;12.186;2023-02-15T07:39:30;1.60;65.10
4584;DHT22;2304;47.606;12.186;2023-02-15T07:44:32;1.70;64.80
4584;DHT22;2304;47.606;12.186;2023-02-15T07:49:34;1.60;65.10
4584;DHT22;2304;47.606;12.186;2023-02-15T07:54:37;1.60;65.30
4584;DHT22;2304;47.606;12.186;2023-02-15T07:59:39;1.70;65.00
4584;DHT22;2304;47.606;12.186;2023-02-15T08:04:41;1.70;65.30
4584;DHT22;2304;47.606;12.186;2023-02-15T08:09:44;1.80;66.10
4584;DHT22;2304;47.606;12.186;2023-02-15T08:14:46;2.40;68.00
4584;DHT22;2304;47.606;12.186;2023-02-15T08:19:47;3.10;67.80
4584;DHT22;2304;47.606;12.186;2023-02-15T08:24:50;3.70;66.40
4584;DHT22;2304;47.606;12.186;2023-02-15T08:29:52;4.30;65.40
4584;DHT22;2304;47.606;12.186;2023-02-15T08:34:54;4.60;62.50
4584;DHT22;2304;47.606;12.186;2023-02-15T08:39:57;4.90;62.00
4584;DHT22;2304;47.606;12.186;2023-02-15T08:44:59;5.00;61.60
4584;DHT22;2304;47.606;12.186;2023-02-15T08:50:01;5.50;61.40
4584;DHT22;2304;47.606;12.186;2023-02-15T08:55:06;5.40;60.60
4584;DHT22;2304;47.606;12.186;2023-02-15T09:00:09;6.00;60.60
4584;DHT22;2304;47.606;12.186;2023-02-15T09:05:12;6.50;59.60
4584;DHT22;2304;47.606;12.186;2023-02-15T09:10:15;7.00;58.30
4584;DHT22;2304;47.606;12.186;2023-02-15T09:15:17;7.20;57.00
4584;DHT22;2304;47.606;12.186;2023-02-15T09:20:19;7.20;55.90
4584;DHT22;2304;47.606;12.186;2023-02-15T09:25:23;7.50;56.40
4584;DHT22;2304;47.606;12.186;2023-02-15T09:30:25;8.00;55.70
4584;DHT22;2304;47.606;12.186;2023-02-15T09:35:27;8.20;54.50
4584;DHT22;2304;47.606;12.186;2023-02-15T09:40:33;8.20;52.50
4584;DHT22;2304;47.606;12.186;2023-02-15T09:45:45;8.30;53.70
4584;DHT22;2304;47.606;12.186;2023-02-15T09:51:01;8.50;53.00
4584;DHT22;2304;47.606;12.186;2023-02-15T09:56:15;8.70;53.10
4584;DHT22;2304;47.606;12.186;2023-02-15T10:01:27;8.60;52.10
4584;DHT22;2304;47.606;12.186;2023-02-15T10:06:35;9.20;51.80
4584;DHT22;2304;47.606;12.186;2023-02-15T10:11:53;9.20;50.80
4584;DHT22;2304;47.606;12.186;2023-02-15T10:17:06;9.70;49.70
4584;DHT22;2304;47.606;12.186;2023-02-15T10:22:22;9.90;48.60
4584;DHT22;2304;47.606;12.186;2023-02-15T10:27:28;10.00;46.50
4584;DHT22;2304;47.606;12.186;2023-02-15T10:32:37;10.20;46.40
4584;DHT22;2304;47.606;12.186;2023-02-15T10:37:49;10.50;46.40
4584;DHT22;2304;47.606;12.186;2023-02-15T10:43:16;10.80;45.50
4584;DHT22;2304;47.606;12.186;2023-02-15T10:48:41;11.10;44.30
4584;DHT22;2304;47.606;12.186;2023-02-15T10:54:04;11.20;43.80
4584;DHT22;2304;47.606;12.186;2023-02-15T10:59:25;11.40;43.40
4584;DHT22;2304;47.606;12.186;2023-02-15T11:04:44;11.60;43.00
4584;DHT22;2304;47.606;12.186;2023-02-15T11:09:49;11.80;43.60
4584;DHT22;2304;47.606;12.186;2023-02-15T11:15:00;12.10;44.50
4584;DHT22;2304;47.606;12.186;2023-02-15T11:20:11;12.30;43.00
4584;DHT22;2304;47.606;12.186;2023-02-15T11:25:19;12.40;42.50
4584;DHT22;2304;47.606;12.186;2023-02-15T11:30:25;12.40;40.70
4584;DHT22;2304;47.606;12.186;2023-02-15T11:35:32;12.60;41.00
4584;DHT22;2304;47.606;12.186;2023-02-15T11:40:47;12.70;41.00
4584;DHT22;2304;47.606;12.186;2023-02-15T11:45:51;13.00;40.10
4584;DHT22;2304;47.606;12.186;2023-02-15T11:50:53;13.00;39.80
4584;DHT22;2304;47.606;12.186;2023-02-15T11:55:55;13.30;39.90
4584;DHT22;2304;47.606;12.186;2023-02-15T12:01:04;13.30;39.00
4584;DHT22;2304;47.606;12.186;2023-02-15T12:06:15;13.30;38.60
4584;DHT22;2304;47.606;12.186;2023-02-15T12:11:22;13.40;38.50
4584;DHT22;2304;47.606;12.186;2023-02-15T12:16:32;13.50;38.10
4584;DHT22;2304;47.606;12.186;2023-02-15T12:21:41;13.70;38.40
4584;DHT22;2304;47.606;12.186;2023-02-15T12:26:43;13.80;38.60
4584;DHT22;2304;47.606;12.186;2023-02-15T12:31:49;14.00;38.80
4584;DHT22;2304;47.606;12.186;2023-02-15T12:36:53;14.10;37.10
4584;DHT22;2304;47.606;12.186;2023-02-15T12:42:02;14.30;36.90
4584;DHT22;2304;47.606;12.186;2023-02-15T12:47:17;14.40;37.70
4584;DHT22;2304;47.606;12.186;2023-02-15T12:52:24;14.40;36.70
4584;DHT22;2304;47.606;12.186;2023-02-15T12:57:28;14.40;36.90
4584;DHT22;2304;47.606;12.186;2023-02-15T13:02:41;14.90;37.10
4584;DHT22;2304;47.606;12.186;2023-02-15T13:07:45;14.60;36.30
4584;DHT22;2304;47.606;12.186;2023-02-15T13:12:50;14.70;37.50
4584;DHT22;2304;47.606;12.186;2023-02-15T13:17:57;14.90;37.50
4584;DHT22;2304;47.606;12.186;2023-02-15T13:23:02;15.00;36.10
4584;DHT22;2304;47.606;12.186;2023-02-15T13:28:10;15.00;34.40
4584;DHT22;2304;47.606;12.186;2023-02-15T13:33:19;15.20;36.80
4584;DHT22;2304;47.606;12.186;2023-02-15T13:38:41;15.20;38.00
4584;DHT22;2304;47.606;12.186;2023-02-15T13:43:52;15.40;39.30
4584;DHT22;2304;47.606;12.186;2023-02-15T13:49:13;15.60;39.70
4584;DHT22;2304;47.606;12.186;2023-02-15T13:54:46;15.40;39.80
4584;DHT22;2304;47.606;12.186;2023-02-15T14:00:08;15.30;39.80
4584;DHT22;2304;47.606;12.186;2023-02-15T14:05:33;15.40;39.70
4584;DHT22;2304;47.606;12.186;2023-02-15T14:10:46;15.50;40.30
4584;DHT22;2304;47.606;12.186;2023-02-15T14:15:53;15.50;40.20
4584;DHT22;2304;47.606;12.186;2023-02-15T14:21:05;15.80;39.90
4584;DHT22;2304;47.606;12.186;2023-02-15T14:26:13;15.50;39.30
4584;DHT22;2304;47.606;12.186;2023-02-15T14:31:19;15.50;38.80
4584;DHT22;2304;47.606;12.186;2023-02-15T14:36:25;15.20;38.60
4584;DHT22;2304;47.606;12.186;2023-02-15T14:41:36;15.10;39.00
4584;DHT22;2304;47.606;12.186;2023-02-15T14:46:42;15.00;38.70
4584;DHT22;2304;47.606;12.186;2023-02-15T14:52:02;14.80;38.70
4584;DHT22;2304;47.606;12.186;2023-02-15T14:57:26;14.70;39.90
4584;DHT22;2304;47.606;12.186;2023-02-15T15:02:39;14.60;39.70
4584;DHT22;2304;47.606;12.186;2023-02-15T15:07:46;14.30;40.10
4584;DHT22;2304;47.606;12.186;2023-02-15T15:12:48;14.20;40.70
4584;DHT22;2304;47.606;12.186;2023-02-15T15:17:59;14.10;41.60
4584;DHT22;2304;47.606;12.186;2023-02-15T15:29:01;13.50;42.90
4584;DHT22;2304;47.606;12.186;2023-02-15T15:34:25;13.20;43.90
4584;DHT22;2304;47.606;12.186;2023-02-15T15:40:17;13.00;44.60
4584;DHT22;2304;47.606;12.186;2023-02-15T15:50:58;12.30;45.50
4584;DHT22;2304;47.606;12.186;2023-02-15T15:56:04;12.10;46.00
4584;DHT22;2304;47.606;12.186;2023-02-15T16:01:10;11.90;46.70
4584;DHT22;2304;47.606;12.186;2023-02-15T16:06:14;11.70;47.10
4584;DHT22;2304;47.606;12.186;2023-02-15T16:11:29;11.50;47.30
4584;DHT22;2304;47.606;12.186;2023-02-15T16:16:32;11.40;47.60
4584;DHT22;2304;47.606;12.186;2023-02-15T16:21:35;11.20;47.90
4584;DHT22;2304;47.606;12.186;2023-02-15T16:27:04;11.10;48.30
4584;DHT22;2304;47.606;12.186;2023-02-15T16:32:18;11.00;48.10
4584;DHT22;2304;47.606;12.186;2023-02-15T16:37:22;10.80;48.00
4584;DHT22;2304;47.606;12.186;2023-02-15T16:42:27;10.60;48.00
4584;DHT22;2304;47.606;12.186;2023-02-15T16:47:31;10.60;48.10
4584;DHT22;2304;47.606;12.186;2023-02-15T16:52:35;10.30;48.10
4584;DHT22;2304;47.606;12.186;2023-02-15T16:57:38;10.40;48.60
4584;DHT22;2304;47.606;12.186;2023-02-15T17:02:55;10.10;49.20
4584;DHT22;2304;47.606;12.186;2023-02-15T17:08:14;9.90;49.50
4584;DHT22;2304;47.606;12.186;2023-02-15T17:13:17;9.70;49.60
4584;DHT22;2304;47.606;12.186;2023-02-15T17:18:22;9.50;49.90
4584;DHT22;2304;47.606;12.186;2023-02-15T17:23:28;9.40;50.00
4584;DHT22;2304;47.606;12.186;2023-02-15T17:28:31;9.30;50.30
4584;DHT22;2304;47.606;12.186;2023-02-15T17:33:38;9.30;50.50
4584;DHT22;2304;47.606;12.186;2023-02-15T17:39:00;9.10;50.30
4584;DHT22;2304;47.606;12.186;2023-02-15T17:44:03;9.00;50.50
4584;DHT22;2304;47.606;12.186;2023-02-15T17:49:06;8.80;50.60
4584;DHT22;2304;47.606;12.186;2023-02-15T17:54:08;8.90;51.00
4584;DHT22;2304;47.606;12.186;2023-02-15T17:59:28;8.50;51.20
4584;DHT22;2304;47.606;12.186;2023-02-15T18:04:32;8.40;51.30
4584;DHT22;2304;47.606;12.186;2023-02-15T18:09:53;8.30;51.30
4584;DHT22;2304;47.606;12.186;2023-02-15T18:15:12;8.20;51.40
4584;DHT22;2304;47.606;12.186;2023-02-15T18:20:18;8.10;51.70
4584;DHT22;2304;47.606;12.186;2023-02-15T18:25:21;7.90;52.20
4584;DHT22;2304;47.606;12.186;2023-02-15T18:30:25;7.80;53.30
4584;DHT22;2304;47.606;12.186;2023-02-15T18:35:30;8.00;52.60
4584;DHT22;2304;47.606;12.186;2023-02-15T18:40:32;7.60;52.70
4584;DHT22;2304;47.606;12.186;2023-02-15T18:45:34;7.50;53.70
4584;DHT22;2304;47.606;12.186;2023-02-15T18:50:38;7.50;53.00
4584;DHT22;2304;47.606;12.186;2023-02-15T18:55:40;7.30;53.50
4584;DHT22;2304;47.606;12.186;2023-02-15T19:00:41;7.20;53.50
4584;DHT22;2304;47.606;12.186;2023-02-15T19:05:46;7.10;54.20
4584;DHT22;2304;47.606;12.186;2023-02-15T19:10:48;7.20;54.00
4584;DHT22;2304;47.606;12.186;2023-02-15T19:15:50;6.90;54.30
4584;DHT22;2304;47.606;12.186;2023-02-15T19:20:53;6.90;55.60
4584;DHT22;2304;47.606;12.186;2023-02-15T19:25:55;6.80;54.90
4584;DHT22;2304;47.606;12.186;2023-02-15T19:30:57;6.80;55.60
4584;DHT22;2304;47.606;12.186;2023-02-15T19:36:00;6.70;56.30
4584;DHT22;2304;47.606;12.186;2023-02-15T19:41:06;6.70;55.40
4584;DHT22;2304;47.606;12.186;2023-02-15T19:46:10;6.60;55.30
4584;DHT22;2304;47.606;12.186;2023-02-15T19:51:17;6.50;55.60
4584;DHT22;2304;47.606;12.186;2023-02-15T19:56:21;6.50;55.80
4584;DHT22;2304;47.606;12.186;2023-02-15T20:01:22;6.60;55.80
4584;DHT22;2304;47.606;12.186;2023-02-15T20:06:26;6.30;56.10
4584;DHT22;2304;47.606;12.186;2023-02-15T20:11:27;6.20;56.60
4584;DHT22;2304;47.606;12.186;2023-02-15T20:16:29;6.10;56.50
4584;DHT22;2304;47.606;12.186;2023-02-15T20:21:32;6.10;57.10
4584;DHT22;2304;47.606;12.186;2023-02-15T20:26:35;6.00;56.60
4584;DHT22;2304;47.606;12.186;2023-02-15T20:31:37;5.90;56.60
4584;DHT22;2304;47.606;12.186;2023-02-15T20:36:40;5.70;57.80
4584;DHT22;2304;47.606;12.186;2023-02-15T20:41:42;5.80;58.00
4584;DHT22;2304;47.606;12.186;2023-02-15T20:46:48;5.70;58.70
4584;DHT22;2304;47.606;12.186;2023-02-15T20:51:53;5.70;58.00
4584;DHT22;2304;47.606;12.186;2023-02-15T20:56:55;5.70;57.90
4584;DHT22;2304;47.606;12.186;2023-02-15T21:01:58;5.60;57.70
4584;DHT22;2304;47.606;12.186;2023-02-15T21:07:02;5.50;58.10
4584;DHT22;2304;47.606;12.186;2023-02-15T21:12:08;5.50;58.60
4584;DHT22;2304;47.606;12.186;2023-02-15T21:17:14;5.40;59.00
4584;DHT22;2304;47.606;12.186;2023-02-15T21:22:17;5.40;59.30
4584;DHT22;2304;47.606;12.186;2023-02-15T21:27:21;5.40;59.50
4584;DHT22;2304;47.606;12.186;2023-02-15T21:32:22;5.50;60.40
4584;DHT22;2304;47.606;12.186;2023-02-15T21:37:30;5.10;60.40
4584;DHT22;2304;47.606;12.186;2023-02-15T21:42:33;5.10;60.00
4584;DHT22;2304;47.606;12.186;2023-02-15T21:47:52;5.00;59.50
4584;DHT22;2304;47.606;12.186;2023-02-15T21:52:55;5.00;60.00
4584;DHT22;2304;47.606;12.186;2023-02-15T21:57:58;5.00;60.80
4584;DHT22;2304;47.606;12.186;2023-02-15T22:03:00;5.00;60.30
4584;DHT22;2304;47.606;12.186;2023-02-15T22:08:09;4.90;60.00
4584;DHT22;2304;47.606;12.186;2023-02-15T22:13:14;4.80;60.30
4584;DHT22;2304;47.606;12.186;2023-02-15T22:18:19;4.80;60.50
4584;DHT22;2304;47.606;12.186;2023-02-15T22:23:23;4.70;60.60
4584;DHT22;2304;47.606;12.186;2023-02-15T22:28:29;4.70;60.30
4584;DHT22;2304;47.606;12.186;2023-02-15T22:33:33;4.70;60.80
4584;DHT22;2304;47.606;12.186;2023-02-15T22:38:36;4.60;60.50
4584;DHT22;2304;47.606;12.186;2023-02-15T22:43:40;4.60;61.00
4584;DHT22;2304;47.606;12.186;2023-02-15T22:48:43;4.40;61.40
4584;DHT22;2304;47.606;12.186;2023-02-15T22:53:46;4.40;62.90
4584;DHT22;2304;47.606;12.186;2023-02-15T22:58:51;4.40;62.20
4584;DHT22;2304;47.606;12.186;2023-02-15T23:03:55;4.30;62.50
4584;DHT22;2304;47.606;12.186;2023-02-15T23:08:58;4.30;62.20
4584;DHT22;2304;47.606;12.186;2023-02-15T23:14:00;4.20;62.20
4584;DHT22;2304;47.606;12.186;2023-02-15T23:19:04;4.20;61.90
4584;DHT22;2304;47.606;12.186;2023-02-15T23:24:16;4.20;61.60
4584;DHT22;2304;47.606;12.186;2023-02-15T23:29:20;4.20;61.50
4584;DHT22;2304;47.606;12.186;2023-02-15T23:34:25;4.20;61.70
4584;DHT22;2304;47.606;12.186;2023-02-15T23:39:29;4.10;61.90
4584;DHT22;2304;47.606;12.186;2023-02-15T23:44:49;4.10;62.10
4584;DHT22;2304;47.606;12.186;2023-02-15T23:49:50;4.10;62.00
4584;DHT22;2304;47.606;12.186;2023-02-15T23:54:54;4.00;61.60
4584;DHT22;2304;47.606;12.186;2023-02-15T23:59:55;4.00;61.70
